sensor_id;sensor_type;location;lat;lon;timestamp;temperature;humidity
24217;DHT22;12356;49.386;8.688;2022-07-22T00:00:57;22.40;69.20
24217;DHT22;12356;49.386;8.688;2022-07-22T00:03:27;22.40;69.30
24217;DHT22;12356;49.386;8.688;2022-07-22T00:05:58;22.40;69.80
24217;DHT22;12356;49.386;8.688;2022-07-22T00:08:29;22.40;69.40
24217;DHT22;12356;49.386;8.688;2022-07-22T00:10:59;22.40;69.60
24217;DHT22;12356;49.386;8.688;2022-07-22T00:13:30;22.40;69.70
24217;DHT22;12356;49.386;8.688;2022-07-22T00:16:01;22.40;69.80
24217;DHT22;12356;49.386;8.688;2022-07-22T00:18:32;22.30;69.80
24217;DHT22;12356;49.386;8.688;2022-07-22T00:21:02;22.40;70.10
24217;DHT22;12356;49.386;8.688;2022-07-22T00:23:33;22.30;70.30
24217;DHT22;12356;49.386;8.688;2022-07-22T00:26:04;22.30;69.80
24217;DHT22;12356;49.386;8.688;2022-07-22T00:28:34;22.30;70.70
24217;DHT22;12356;49.386;8.688;2022-07-22T00:31:06;22.20;70.90
24217;DHT22;12356;49.386;8.688;2022-07-22T00:33:36;22.20;71.10
24217;DHT22;12356;49.386;8.688;2022-07-22T00:36:07;22.10;71.30
24217;DHT22;12356;49.386;8.688;2022-07-22T00:38:38;22.10;71.30
24217;DHT22;12356;49.386;8.688;2022-07-22T00:41:09;22.10;71.00
24217;DHT22;12356;49.386;8.688;2022-07-22T00:44:03;22.10;70.60
24217;DHT22;12356;49.386;8.688;2022-07-22T00:46:35;22.10;71.10
24217;DHT22;12356;49.386;8.688;2022-07-22T00:49:07;22.00;70.90
24217;DHT22;12356;49.386;8.688;2022-07-22T00:51:39;22.10;70.80
24217;DHT22;12356;49.386;8.688;2022-07-22T00:54:09;22.10;70.90
24217;DHT22;12356;49.386;8.688;2022-07-22T00:56:40;22.00;70.70
24217;DHT22;12356;49.386;8.688;2022-07-22T00:59:12;22.00;70.60
24217;DHT22;12356;49.386;8.688;2022-07-22T01:01:43;22.00;70.70
24217;DHT22;12356;49.386;8.688;2022-07-22T01:04:13;22.00;71.20
24217;DHT22;12356;49.386;8.688;2022-07-22T01:06:45;21.90;71.20
24217;DHT22;12356;49.386;8.688;2022-07-22T01:09:15;21.90;71.40
24217;DHT22;12356;49.386;8.688;2022-07-22T01:11:46;21.90;71.30
24217;DHT22;12356;49.386;8.688;2022-07-22T01:14:17;21.80;71.80
24217;DHT22;12356;49.386;8.688;2022-07-22T01:16:47;21.80;72.10
24217;DHT22;12356;49.386;8.688;2022-07-22T01:19:18;21.80;72.30
24217;DHT22;12356;49.386;8.688;2022-07-22T01:21:49;21.80;71.70
24217;DHT22;12356;49.386;8.688;2022-07-22T01:24:19;21.80;71.60
24217;DHT22;12356;49.386;8.688;2022-07-22T01:26:50;21.80;71.50
24217;DHT22;12356;49.386;8.688;2022-07-22T01:29:21;21.80;71.50
24217;DHT22;12356;49.386;8.688;2022-07-22T01:31:51;21.70;71.90
24217;DHT22;12356;49.386;8.688;2022-07-22T01:34:22;21.70;72.20
24217;DHT22;12356;49.386;8.688;2022-07-22T01:36:53;21.70;71.80
24217;DHT22;12356;49.386;8.688;2022-07-22T01:39:24;21.70;71.70
24217;DHT22;12356;49.386;8.688;2022-07-22T01:41:54;21.70;71.50
24217;DHT22;12356;49.386;8.688;2022-07-22T01:44:25;21.70;71.90
24217;DHT22;12356;49.386;8.688;2022-07-22T01:46:56;21.60;72.20
24217;DHT22;12356;49.386;8.688;2022-07-22T01:49:28;21.50;72.30
24217;DHT22;12356;49.386;8.688;2022-07-22T01:51:59;21.50;72.50
24217;DHT22;12356;49.386;8.688;2022-07-22T01:54:30;21.50;72.20
24217;DHT22;12356;49.386;8.688;2022-07-22T01:57:01;21.60;72.10
24217;DHT22;12356;49.386;8.688;2022-07-22T01:59:32;21.60;71.90
24217;DHT22;12356;49.386;8.688;2022-07-22T02:02:03;21.50;72.60
24217;DHT22;12356;49.386;8.688;2022-07-22T02:04:34;21.30;73.00
24217;DHT22;12356;49.386;8.688;2022-07-22T02:07:04;21.30;74.20
24217;DHT22;12356;49.386;8.688;2022-07-22T02:09:35;21.20;74.40
24217;DHT22;12356;49.386;8.688;2022-07-22T02:12:06;21.30;74.20
24217;DHT22;12356;49.386;8.688;2022-07-22T02:14:36;21.30;73.50
24217;DHT22;12356;49.386;8.688;2022-07-22T02:17:07;21.30;73.30
24217;DHT22;12356;49.386;8.688;2022-07-22T02:19:38;21.30;73.20
24217;DHT22;12356;49.386;8.688;2022-07-22T02:22:09;21.30;73.20
24217;DHT22;12356;49.386;8.688;2022-07-22T02:24:40;21.30;74.40
24217;DHT22;12356;49.386;8.688;2022-07-22T02:27:10;21.30;73.70
24217;DHT22;12356;49.386;8.688;2022-07-22T02:29:41;21.30;73.30
24217;DHT22;12356;49.386;8.688;2022-07-22T02:32:12;21.30;73.00
24217;DHT22;12356;49.386;8.688;2022-07-22T02:34:43;21.20;73.50
24217;DHT22;12356;49.386;8.688;2022-07-22T02:37:13;21.10;74.00
24217;DHT22;12356;49.386;8.688;2022-07-22T02:39:44;21.10;74.30
24217;DHT22;12356;49.386;8.688;2022-07-22T02:42:15;21.10;73.70
24217;DHT22;12356;49.386;8.688;2022-07-22T02:44:46;21.10;74.00
24217;DHT22;12356;49.386;8.688;2022-07-22T02:47:16;21.00;74.20
24217;DHT22;12356;49.386;8.688;2022-07-22T02:49:47;21.00;74.20
24217;DHT22;12356;49.386;8.688;2022-07-22T02:52:18;21.10;74.20
24217;DHT22;12356;49.386;8.688;2022-07-22T02:54:48;21.10;74.10
24217;DHT22;12356;49.386;8.688;2022-07-22T02:57:19;21.10;74.00
24217;DHT22;12356;49.386;8.688;2022-07-22T02:59:50;21.10;73.80
24217;DHT22;12356;49.386;8.688;2022-07-22T03:02:21;21.00;74.20
24217;DHT22;12356;49.386;8.688;2022-07-22T03:04:52;20.90;74.20
24217;DHT22;12356;49.386;8.688;2022-07-22T03:07:22;21.00;74.20
24217;DHT22;12356;49.386;8.688;2022-07-22T03:09:53;20.90;74.50
24217;DHT22;12356;49.386;8.688;2022-07-22T03:12:24;20.90;74.80
24217;DHT22;12356;49.386;8.688;2022-07-22T03:14:54;20.90;75.10
24217;DHT22;12356;49.386;8.688;2022-07-22T03:17:25;20.80;75.50
24217;DHT22;12356;49.386;8.688;2022-07-22T03:19:56;20.90;75.60
24217;DHT22;12356;49.386;8.688;2022-07-22T03:22:26;20.90;75.60
24217;DHT22;12356;49.386;8.688;2022-07-22T03:24:57;20.90;75.50
24217;DHT22;12356;49.386;8.688;2022-07-22T03:27:27;20.90;75.10
24217;DHT22;12356;49.386;8.688;2022-07-22T03:29:58;20.80;75.50
24217;DHT22;12356;49.386;8.688;2022-07-22T03:32:29;20.70;76.00
24217;DHT22;12356;49.386;8.688;2022-07-22T03:34:59;20.70;76.40
24217;DHT22;12356;49.386;8.688;2022-07-22T03:37:30;20.70;76.10
24217;DHT22;12356;49.386;8.688;2022-07-22T03:40:01;20.70;76.10
24217;DHT22;12356;49.386;8.688;2022-07-22T03:42:32;20.70;76.10
24217;DHT22;12356;49.386;8.688;2022-07-22T03:45:03;20.70;75.80
24217;DHT22;12356;49.386;8.688;2022-07-22T03:47:34;20.70;75.90
24217;DHT22;12356;49.386;8.688;2022-07-22T03:50:05;20.70;76.20
24217;DHT22;12356;49.386;8.688;2022-07-22T03:52:36;20.70;76.10
24217;DHT22;12356;49.386;8.688;2022-07-22T03:55:08;20.60;76.30
24217;DHT22;12356;49.386;8.688;2022-07-22T03:57:38;20.50;76.60
24217;DHT22;12356;49.386;8.688;2022-07-22T04:00:09;20.60;76.40
24217;DHT22;12356;49.386;8.688;2022-07-22T04:02:40;20.60;76.10
24217;DHT22;12356;49.386;8.688;2022-07-22T04:05:10;20.70;76.20
24217;DHT22;12356;49.386;8.688;2022-07-22T04:07:41;20.60;76.70
24217;DHT22;12356;49.386;8.688;2022-07-22T04:10:12;20.50;76.80
24217;DHT22;12356;49.386;8.688;2022-07-22T04:12:42;20.50;77.00
24217;DHT22;12356;49.386;8.688;2022-07-22T04:15:13;20.40;77.30
24217;DHT22;12356;49.386;8.688;2022-07-22T04:17:44;20.50;77.10
24217;DHT22;12356;49.386;8.688;2022-07-22T04:20:14;20.50;76.60
24217;DHT22;12356;49.386;8.688;2022-07-22T04:22:45;20.50;76.70
24217;DHT22;12356;49.386;8.688;2022-07-22T04:25:16;20.50;76.70
24217;DHT22;12356;49.386;8.688;2022-07-22T04:27:46;20.60;76.60
24217;DHT22;12356;49.386;8.688;2022-07-22T04:30:17;20.60;76.30
24217;DHT22;12356;49.386;8.688;2022-07-22T04:32:47;20.60;76.20
24217;DHT22;12356;49.386;8.688;2022-07-22T04:35:18;20.60;76.10
24217;DHT22;12356;49.386;8.688;2022-07-22T04:37:49;20.50;76.20
24217;DHT22;12356;49.386;8.688;2022-07-22T04:40:19;20.50;76.30
24217;DHT22;12356;49.386;8.688;2022-07-22T04:42:50;20.60;76.30
24217;DHT22;12356;49.386;8.688;2022-07-22T04:45:21;20.60;76.60
24217;DHT22;12356;49.386;8.688;2022-07-22T04:47:51;20.50;76.50
24217;DHT22;12356;49.386;8.688;2022-07-22T04:50:22;20.50;76.60
24217;DHT22;12356;49.386;8.688;2022-07-22T04:52:53;20.60;76.10
24217;DHT22;12356;49.386;8.688;2022-07-22T04:55:23;20.50;76.40
24217;DHT22;12356;49.386;8.688;2022-07-22T04:57:54;20.50;76.50
24217;DHT22;12356;49.386;8.688;2022-07-22T05:00:25;20.40;76.70
24217;DHT22;12356;49.386;8.688;2022-07-22T05:02:56;20.40;76.50
24217;DHT22;12356;49.386;8.688;2022-07-22T05:05:26;20.30;76.50
24217;DHT22;12356;49.386;8.688;2022-07-22T05:07:57;20.40;76.10
24217;DHT22;12356;49.386;8.688;2022-07-22T05:10:28;20.40;75.60
24217;DHT22;12356;49.386;8.688;2022-07-22T05:12:59;20.50;75.30
24217;DHT22;12356;49.386;8.688;2022-07-22T05:15:29;20.40;75.80
24217;DHT22;12356;49.386;8.688;2022-07-22T05:18:00;20.40;75.80
24217;DHT22;12356;49.386;8.688;2022-07-22T05:20:31;20.40;75.80
24217;DHT22;12356;49.386;8.688;2022-07-22T05:23:01;20.30;76.00
24217;DHT22;12356;49.386;8.688;2022-07-22T05:25:32;20.30;76.10
24217;DHT22;12356;49.386;8.688;2022-07-22T05:28:03;20.30;75.90
24217;DHT22;12356;49.386;8.688;2022-07-22T05:30:33;20.30;76.30
24217;DHT22;12356;49.386;8.688;2022-07-22T05:33:04;20.30;76.50
24217;DHT22;12356;49.386;8.688;2022-07-22T05:35:35;20.20;76.50
24217;DHT22;12356;49.386;8.688;2022-07-22T05:38:05;20.20;76.50
24217;DHT22;12356;49.386;8.688;2022-07-22T05:40:36;20.30;76.70
24217;DHT22;12356;49.386;8.688;2022-07-22T05:43:07;20.40;76.30
24217;DHT22;12356;49.386;8.688;2022-07-22T05:45:37;20.40;76.20
24217;DHT22;12356;49.386;8.688;2022-07-22T05:48:08;20.40;76.00
24217;DHT22;12356;49.386;8.688;2022-07-22T05:50:39;20.40;75.80
24217;DHT22;12356;49.386;8.688;2022-07-22T05:53:09;20.40;76.10
24217;DHT22;12356;49.386;8.688;2022-07-22T05:55:40;20.40;75.60
24217;DHT22;12356;49.386;8.688;2022-07-22T05:58:10;20.50;75.40
24217;DHT22;12356;49.386;8.688;2022-07-22T06:00:41;20.50;75.20
24217;DHT22;12356;49.386;8.688;2022-07-22T06:03:12;20.60;75.10
24217;DHT22;12356;49.386;8.688;2022-07-22T06:05:43;20.70;74.70
24217;DHT22;12356;49.386;8.688;2022-07-22T06:08:13;20.70;74.30
24217;DHT22;12356;49.386;8.688;2022-07-22T06:10:44;20.70;74.30
24217;DHT22;12356;49.386;8.688;2022-07-22T06:13:15;20.70;73.90
24217;DHT22;12356;49.386;8.688;2022-07-22T06:15:45;20.70;73.90
24217;DHT22;12356;49.386;8.688;2022-07-22T06:18:16;20.80;73.60
24217;DHT22;12356;49.386;8.688;2022-07-22T06:20:47;20.80;73.20
24217;DHT22;12356;49.386;8.688;2022-07-22T06:23:17;20.80;73.40
24217;DHT22;12356;49.386;8.688;2022-07-22T06:25:48;20.90;73.20
24217;DHT22;12356;49.386;8.688;2022-07-22T06:28:18;21.00;73.40
24217;DHT22;12356;49.386;8.688;2022-07-22T06:30:49;21.00;73.60
24217;DHT22;12356;49.386;8.688;2022-07-22T06:33:20;21.00;73.40
24217;DHT22;12356;49.386;8.688;2022-07-22T06:35:50;21.10;73.00
24217;DHT22;12356;49.386;8.688;2022-07-22T06:38:21;21.10;73.40
24217;DHT22;12356;49.386;8.688;2022-07-22T06:40:52;21.10;73.00
24217;DHT22;12356;49.386;8.688;2022-07-22T06:43:22;21.20;73.30
24217;DHT22;12356;49.386;8.688;2022-07-22T06:45:53;21.20;72.50
24217;DHT22;12356;49.386;8.688;2022-07-22T06:48:23;21.30;72.50
24217;DHT22;12356;49.386;8.688;2022-07-22T06:50:54;21.30;72.30
24217;DHT22;12356;49.386;8.688;2022-07-22T06:53:25;21.30;72.10
24217;DHT22;12356;49.386;8.688;2022-07-22T06:55:55;21.40;72.10
24217;DHT22;12356;49.386;8.688;2022-07-22T06:58:26;21.50;73.00
24217;DHT22;12356;49.386;8.688;2022-07-22T07:00:56;21.50;72.10
24217;DHT22;12356;49.386;8.688;2022-07-22T07:03:27;21.50;72.20
24217;DHT22;12356;49.386;8.688;2022-07-22T07:05:58;21.50;72.50
24217;DHT22;12356;49.386;8.688;2022-07-22T07:08:28;21.60;72.50
24217;DHT22;12356;49.386;8.688;2022-07-22T07:10:59;21.60;72.20
24217;DHT22;12356;49.386;8.688;2022-07-22T07:13:30;21.60;72.30
24217;DHT22;12356;49.386;8.688;2022-07-22T07:16:01;21.70;72.40
24217;DHT22;12356;49.386;8.688;2022-07-22T07:18:31;21.80;72.60
24217;DHT22;12356;49.386;8.688;2022-07-22T07:21:03;21.90;72.30
24217;DHT22;12356;49.386;8.688;2022-07-22T07:23:34;21.90;72.00
24217;DHT22;12356;49.386;8.688;2022-07-22T07:26:05;22.00;71.40
24217;DHT22;12356;49.386;8.688;2022-07-22T07:28:36;22.20;71.30
24217;DHT22;12356;49.386;8.688;2022-07-22T07:31:06;22.30;70.40
24217;DHT22;12356;49.386;8.688;2022-07-22T07:33:37;22.40;70.40
24217;DHT22;12356;49.386;8.688;2022-07-22T07:36:08;22.50;69.70
24217;DHT22;12356;49.386;8.688;2022-07-22T07:38:38;22.50;68.40
24217;DHT22;12356;49.386;8.688;2022-07-22T07:41:10;22.60;68.30
24217;DHT22;12356;49.386;8.688;2022-07-22T07:43:41;22.70;68.60
24217;DHT22;12356;49.386;8.688;2022-07-22T07:46:12;22.70;69.10
24217;DHT22;12356;49.386;8.688;2022-07-22T07:48:42;22.80;68.80
24217;DHT22;12356;49.386;8.688;2022-07-22T07:51:14;22.90;67.50
24217;DHT22;12356;49.386;8.688;2022-07-22T07:53:44;23.00;67.30
24217;DHT22;12356;49.386;8.688;2022-07-22T07:56:15;23.10;67.20
24217;DHT22;12356;49.386;8.688;2022-07-22T07:58:46;23.20;67.90
24217;DHT22;12356;49.386;8.688;2022-07-22T08:01:17;23.20;67.70
24217;DHT22;12356;49.386;8.688;2022-07-22T08:03:47;23.30;66.70
24217;DHT22;12356;49.386;8.688;2022-07-22T08:06:18;23.30;65.30
24217;DHT22;12356;49.386;8.688;2022-07-22T08:08:48;23.30;65.20
24217;DHT22;12356;49.386;8.688;2022-07-22T08:11:19;23.30;66.00
24217;DHT22;12356;49.386;8.688;2022-07-22T08:13:50;23.40;66.20
24217;DHT22;12356;49.386;8.688;2022-07-22T08:16:20;23.40;65.30
24217;DHT22;12356;49.386;8.688;2022-07-22T08:18:51;23.40;66.30
24217;DHT22;12356;49.386;8.688;2022-07-22T08:21:22;23.50;66.20
24217;DHT22;12356;49.386;8.688;2022-07-22T08:23:52;23.50;65.60
24217;DHT22;12356;49.386;8.688;2022-07-22T08:26:23;23.50;66.00
24217;DHT22;12356;49.386;8.688;2022-07-22T08:28:54;23.50;65.60
24217;DHT22;12356;49.386;8.688;2022-07-22T08:31:27;23.50;65.10
24217;DHT22;12356;49.386;8.688;2022-07-22T08:33:57;23.50;65.10
24217;DHT22;12356;49.386;8.688;2022-07-22T08:36:30;23.60;65.40
24217;DHT22;12356;49.386;8.688;2022-07-22T08:39:01;23.60;65.90
24217;DHT22;12356;49.386;8.688;2022-07-22T08:41:35;23.60;64.90
24217;DHT22;12356;49.386;8.688;2022-07-22T08:44:08;23.60;64.80
24217;DHT22;12356;49.386;8.688;2022-07-22T08:46:39;23.60;65.20
24217;DHT22;12356;49.386;8.688;2022-07-22T08:49:15;23.70;65.30
24217;DHT22;12356;49.386;8.688;2022-07-22T08:51:46;23.70;64.20
24217;DHT22;12356;49.386;8.688;2022-07-22T08:54:16;23.70;64.40
24217;DHT22;12356;49.386;8.688;2022-07-22T08:56:49;23.70;64.30
24217;DHT22;12356;49.386;8.688;2022-07-22T08:59:20;23.70;65.20
24217;DHT22;12356;49.386;8.688;2022-07-22T09:02:10;23.80;64.80
24217;DHT22;12356;49.386;8.688;2022-07-22T09:04:59;23.80;65.40
24217;DHT22;12356;49.386;8.688;2022-07-22T09:07:35;23.80;64.30
24217;DHT22;12356;49.386;8.688;2022-07-22T09:10:09;23.90;64.40
24217;DHT22;12356;49.386;8.688;2022-07-22T09:12:54;23.90;63.60
24217;DHT22;12356;49.386;8.688;2022-07-22T09:15:31;23.90;63.30
24217;DHT22;12356;49.386;8.688;2022-07-22T09:18:04;23.90;64.40
24217;DHT22;12356;49.386;8.688;2022-07-22T09:20:36;24.00;65.60
24217;DHT22;12356;49.386;8.688;2022-07-22T09:23:24;24.00;65.50
24217;DHT22;12356;49.386;8.688;2022-07-22T09:25:55;24.10;64.90
24217;DHT22;12356;49.386;8.688;2022-07-22T09:28:26;24.20;64.00
24217;DHT22;12356;49.386;8.688;2022-07-22T09:30:57;24.20;64.20
24217;DHT22;12356;49.386;8.688;2022-07-22T09:33:28;24.20;64.50
24217;DHT22;12356;49.386;8.688;2022-07-22T09:36:03;24.30;65.20
24217;DHT22;12356;49.386;8.688;2022-07-22T09:38:34;24.30;63.70
24217;DHT22;12356;49.386;8.688;2022-07-22T09:41:06;24.40;62.80
24217;DHT22;12356;49.386;8.688;2022-07-22T09:43:36;24.40;62.30
24217;DHT22;12356;49.386;8.688;2022-07-22T09:46:07;24.40;62.60
24217;DHT22;12356;49.386;8.688;2022-07-22T09:48:40;24.40;62.50
24217;DHT22;12356;49.386;8.688;2022-07-22T09:51:11;24.40;63.20
24217;DHT22;12356;49.386;8.688;2022-07-22T09:53:42;24.50;63.20
24217;DHT22;12356;49.386;8.688;2022-07-22T09:56:12;24.50;62.30
24217;DHT22;12356;49.386;8.688;2022-07-22T09:58:43;24.50;62.40
24217;DHT22;12356;49.386;8.688;2022-07-22T10:01:14;24.50;62.20
24217;DHT22;12356;49.386;8.688;2022-07-22T10:03:48;24.60;62.00
24217;DHT22;12356;49.386;8.688;2022-07-22T10:06:20;24.60;61.90
24217;DHT22;12356;49.386;8.688;2022-07-22T10:08:51;24.60;61.60
24217;DHT22;12356;49.386;8.688;2022-07-22T10:11:24;24.70;61.80
24217;DHT22;12356;49.386;8.688;2022-07-22T10:13:55;24.70;62.20
24217;DHT22;12356;49.386;8.688;2022-07-22T10:16:26;24.80;62.40
24217;DHT22;12356;49.386;8.688;2022-07-22T10:18:57;24.80;61.10
24217;DHT22;12356;49.386;8.688;2022-07-22T10:21:34;24.90;60.80
24217;DHT22;12356;49.386;8.688;2022-07-22T10:24:15;24.90;61.60
24217;DHT22;12356;49.386;8.688;2022-07-22T10:29:32;25.00;62.30
24217;DHT22;12356;49.386;8.688;2022-07-22T10:32:22;25.00;62.80
24217;DHT22;12356;49.386;8.688;2022-07-22T10:40:12;25.20;61.20
24217;DHT22;12356;49.386;8.688;2022-07-22T10:45:44;25.30;60.00
24217;DHT22;12356;49.386;8.688;2022-07-22T10:48:24;25.30;60.20
24217;DHT22;12356;49.386;8.688;2022-07-22T10:51:14;25.40;59.70
24217;DHT22;12356;49.386;8.688;2022-07-22T10:53:54;25.40;59.50
24217;DHT22;12356;49.386;8.688;2022-07-22T10:56:35;25.40;60.90
24217;DHT22;12356;49.386;8.688;2022-07-22T10:59:13;25.50;61.00
24217;DHT22;12356;49.386;8.688;2022-07-22T11:01:48;25.50;60.50
24217;DHT22;12356;49.386;8.688;2022-07-22T11:04:22;25.60;58.90
24217;DHT22;12356;49.386;8.688;2022-07-22T11:06:55;25.60;58.20
24217;DHT22;12356;49.386;8.688;2022-07-22T11:09:35;25.60;58.70
24217;DHT22;12356;49.386;8.688;2022-07-22T11:12:12;25.80;57.90
24217;DHT22;12356;49.386;8.688;2022-07-22T11:14:42;25.80;58.30
24217;DHT22;12356;49.386;8.688;2022-07-22T11:17:13;25.80;57.30
24217;DHT22;12356;49.386;8.688;2022-07-22T11:19:44;25.90;56.60
24217;DHT22;12356;49.386;8.688;2022-07-22T11:22:15;25.80;56.20
24217;DHT22;12356;49.386;8.688;2022-07-22T11:24:50;25.80;57.80
24217;DHT22;12356;49.386;8.688;2022-07-22T11:27:20;25.90;59.90
24217;DHT22;12356;49.386;8.688;2022-07-22T11:29:53;26.00;60.20
24217;DHT22;12356;49.386;8.688;2022-07-22T11:32:26;26.10;59.30
24217;DHT22;12356;49.386;8.688;2022-07-22T11:34:59;26.10;56.60
24217;DHT22;12356;49.386;8.688;2022-07-22T11:37:29;26.10;57.40
24217;DHT22;12356;49.386;8.688;2022-07-22T11:40:03;26.20;57.60
24217;DHT22;12356;49.386;8.688;2022-07-22T11:42:34;26.30;59.00
24217;DHT22;12356;49.386;8.688;2022-07-22T11:45:05;26.30;58.90
24217;DHT22;12356;49.386;8.688;2022-07-22T11:47:36;26.40;56.20
24217;DHT22;12356;49.386;8.688;2022-07-22T11:50:07;26.40;57.90
24217;DHT22;12356;49.386;8.688;2022-07-22T11:52:38;26.40;56.90
24217;DHT22;12356;49.386;8.688;2022-07-22T11:55:15;26.50;56.00
24217;DHT22;12356;49.386;8.688;2022-07-22T11:57:47;26.50;55.60
24217;DHT22;12356;49.386;8.688;2022-07-22T12:00:20;26.60;55.70
24217;DHT22;12356;49.386;8.688;2022-07-22T12:02:52;26.70;54.80
24217;DHT22;12356;49.386;8.688;2022-07-22T12:05:22;26.70;54.20
24217;DHT22;12356;49.386;8.688;2022-07-22T12:07:53;26.80;54.50
24217;DHT22;12356;49.386;8.688;2022-07-22T12:10:24;26.80;52.50
24217;DHT22;12356;49.386;8.688;2022-07-22T12:12:54;26.90;52.90
24217;DHT22;12356;49.386;8.688;2022-07-22T12:15:25;26.90;52.40
24217;DHT22;12356;49.386;8.688;2022-07-22T12:18:17;26.90;53.40
24217;DHT22;12356;49.386;8.688;2022-07-22T12:20:49;27.00;53.10
24217;DHT22;12356;49.386;8.688;2022-07-22T12:23:22;27.10;51.50
24217;DHT22;12356;49.386;8.688;2022-07-22T12:25:56;27.20;50.80
24217;DHT22;12356;49.386;8.688;2022-07-22T12:28:28;27.20;52.00
24217;DHT22;12356;49.386;8.688;2022-07-22T12:30:59;27.20;50.40
24217;DHT22;12356;49.386;8.688;2022-07-22T12:33:29;27.20;48.70
24217;DHT22;12356;49.386;8.688;2022-07-22T12:36:04;27.20;49.30
24217;DHT22;12356;49.386;8.688;2022-07-22T12:38:35;27.30;49.00
24217;DHT22;12356;49.386;8.688;2022-07-22T12:41:23;27.40;48.70
24217;DHT22;12356;49.386;8.688;2022-07-22T12:43:54;27.50;47.20
24217;DHT22;12356;49.386;8.688;2022-07-22T12:46:25;27.40;46.90
24217;DHT22;12356;49.386;8.688;2022-07-22T12:48:55;27.50;48.10
24217;DHT22;12356;49.386;8.688;2022-07-22T12:51:30;27.50;46.30
24217;DHT22;12356;49.386;8.688;2022-07-22T12:54:01;27.60;46.10
24217;DHT22;12356;49.386;8.688;2022-07-22T12:56:32;27.60;45.90
24217;DHT22;12356;49.386;8.688;2022-07-22T12:59:04;27.60;44.60
24217;DHT22;12356;49.386;8.688;2022-07-22T13:01:34;27.70;44.80
24217;DHT22;12356;49.386;8.688;2022-07-22T13:04:05;27.70;44.40
24217;DHT22;12356;49.386;8.688;2022-07-22T13:06:35;27.70;44.20
24217;DHT22;12356;49.386;8.688;2022-07-22T13:09:07;27.60;44.90
24217;DHT22;12356;49.386;8.688;2022-07-22T13:11:37;27.60;45.30
24217;DHT22;12356;49.386;8.688;2022-07-22T13:14:14;27.50;45.60
24217;DHT22;12356;49.386;8.688;2022-07-22T13:16:45;27.50;46.70
24217;DHT22;12356;49.386;8.688;2022-07-22T13:19:15;27.60;45.10
24217;DHT22;12356;49.386;8.688;2022-07-22T13:21:46;27.60;45.00
24217;DHT22;12356;49.386;8.688;2022-07-22T13:24:17;27.70;45.10
24217;DHT22;12356;49.386;8.688;2022-07-22T13:26:47;27.80;44.00
24217;DHT22;12356;49.386;8.688;2022-07-22T13:29:18;27.80;44.20
24217;DHT22;12356;49.386;8.688;2022-07-22T13:31:49;27.90;44.00
24217;DHT22;12356;49.386;8.688;2022-07-22T13:34:19;28.00;42.40
24217;DHT22;12356;49.386;8.688;2022-07-22T13:36:50;28.00;43.70
24217;DHT22;12356;49.386;8.688;2022-07-22T13:39:22;28.00;43.90
24217;DHT22;12356;49.386;8.688;2022-07-22T13:41:53;28.00;43.20
24217;DHT22;12356;49.386;8.688;2022-07-22T13:44:23;28.10;42.70
24217;DHT22;12356;49.386;8.688;2022-07-22T13:46:56;28.10;41.30
24217;DHT22;12356;49.386;8.688;2022-07-22T13:49:28;28.10;41.80
24217;DHT22;12356;49.386;8.688;2022-07-22T13:51:58;28.20;42.20
24217;DHT22;12356;49.386;8.688;2022-07-22T13:54:29;28.20;41.30
24217;DHT22;12356;49.386;8.688;2022-07-22T13:57:00;28.20;40.80
24217;DHT22;12356;49.386;8.688;2022-07-22T13:59:31;28.20;41.60
24217;DHT22;12356;49.386;8.688;2022-07-22T14:04:39;28.40;41.20
24217;DHT22;12356;49.386;8.688;2022-07-22T14:07:09;28.40;41.60
24217;DHT22;12356;49.386;8.688;2022-07-22T14:09:40;28.50;41.00
24217;DHT22;12356;49.386;8.688;2022-07-22T14:12:10;28.50;41.00
24217;DHT22;12356;49.386;8.688;2022-07-22T14:14:41;28.60;41.10
24217;DHT22;12356;49.386;8.688;2022-07-22T14:17:12;28.60;41.00
24217;DHT22;12356;49.386;8.688;2022-07-22T14:19:42;28.70;40.00
24217;DHT22;12356;49.386;8.688;2022-07-22T14:22:13;28.70;40.60
24217;DHT22;12356;49.386;8.688;2022-07-22T14:24:43;28.80;39.20
24217;DHT22;12356;49.386;8.688;2022-07-22T14:27:14;28.80;40.40
24217;DHT22;12356;49.386;8.688;2022-07-22T14:29:45;28.80;39.90
24217;DHT22;12356;49.386;8.688;2022-07-22T14:32:15;28.80;39.20
24217;DHT22;12356;49.386;8.688;2022-07-22T14:34:46;28.70;39.60
24217;DHT22;12356;49.386;8.688;2022-07-22T14:37:17;28.80;40.10
24217;DHT22;12356;49.386;8.688;2022-07-22T14:39:47;28.90;39.40
24217;DHT22;12356;49.386;8.688;2022-07-22T14:42:18;28.90;40.30
24217;DHT22;12356;49.386;8.688;2022-07-22T14:44:48;28.90;38.60
24217;DHT22;12356;49.386;8.688;2022-07-22T14:47:19;28.90;38.70
24217;DHT22;12356;49.386;8.688;2022-07-22T14:49:50;29.00;39.90
24217;DHT22;12356;49.386;8.688;2022-07-22T14:52:20;29.00;38.70
24217;DHT22;12356;49.386;8.688;2022-07-22T14:54:51;29.00;38.50
24217;DHT22;12356;49.386;8.688;2022-07-22T14:57:21;29.00;39.00
24217;DHT22;12356;49.386;8.688;2022-07-22T14:59:52;29.00;39.90
24217;DHT22;12356;49.386;8.688;2022-07-22T15:02:23;29.00;38.60
24217;DHT22;12356;49.386;8.688;2022-07-22T15:04:55;29.10;38.00
24217;DHT22;12356;49.386;8.688;2022-07-22T15:07:25;29.10;38.50
24217;DHT22;12356;49.386;8.688;2022-07-22T15:09:56;29.10;39.60
24217;DHT22;12356;49.386;8.688;2022-07-22T15:12:27;29.00;38.80
24217;DHT22;12356;49.386;8.688;2022-07-22T15:14:57;29.00;38.40
24217;DHT22;12356;49.386;8.688;2022-07-22T15:17:28;28.90;37.90
24217;DHT22;12356;49.386;8.688;2022-07-22T15:19:58;29.00;38.20
24217;DHT22;12356;49.386;8.688;2022-07-22T15:22:29;29.00;39.20
24217;DHT22;12356;49.386;8.688;2022-07-22T15:25:00;29.00;38.30
24217;DHT22;12356;49.386;8.688;2022-07-22T15:27:31;29.00;39.20
24217;DHT22;12356;49.386;8.688;2022-07-22T15:30:01;29.10;37.90
24217;DHT22;12356;49.386;8.688;2022-07-22T15:32:32;29.10;37.80
24217;DHT22;12356;49.386;8.688;2022-07-22T15:35:04;29.10;37.60
24217;DHT22;12356;49.386;8.688;2022-07-22T15:37:35;29.10;37.90
24217;DHT22;12356;49.386;8.688;2022-07-22T15:40:09;29.10;37.50
24217;DHT22;12356;49.386;8.688;2022-07-22T15:42:41;29.10;37.90
24217;DHT22;12356;49.386;8.688;2022-07-22T15:45:12;29.00;38.00
24217;DHT22;12356;49.386;8.688;2022-07-22T15:47:42;29.00;37.70
24217;DHT22;12356;49.386;8.688;2022-07-22T15:50:14;29.00;38.40
24217;DHT22;12356;49.386;8.688;2022-07-22T15:52:47;29.00;38.40
24217;DHT22;12356;49.386;8.688;2022-07-22T15:55:18;29.00;38.10
24217;DHT22;12356;49.386;8.688;2022-07-22T15:57:49;29.00;37.70
24217;DHT22;12356;49.386;8.688;2022-07-22T16:00:38;29.00;38.00
24217;DHT22;12356;49.386;8.688;2022-07-22T16:03:09;29.00;38.50
24217;DHT22;12356;49.386;8.688;2022-07-22T16:05:40;29.00;38.00
24217;DHT22;12356;49.386;8.688;2022-07-22T16:08:11;29.00;37.40
24217;DHT22;12356;49.386;8.688;2022-07-22T16:10:41;28.90;38.00